createdAt,value
2023-01-13T00:01:40.051Z,101634.95
2023-01-13T00:04:11.670Z,101635.70
2023-01-13T00:06:40.473Z,101634.48
2023-01-13T00:09:09.221Z,101630.50
2023-01-13T00:11:37.928Z,101633.91
2023-01-13T00:14:06.655Z,101635.39
2023-01-13T00:16:35.300Z,101628.20
2023-01-13T00:19:04.052Z,101628.73
2023-01-13T00:21:32.774Z,101630.14
2023-01-13T00:24:01.384Z,101633.64
2023-01-13T00:26:36.069Z,101634.62
2023-01-13T00:29:05.104Z,101634.39
2023-01-13T00:31:33.899Z,101630.45
2023-01-13T00:34:02.777Z,101629.88
2023-01-13T00:36:32.293Z,101626.42
2023-01-13T00:39:01.029Z,101626.17
2023-01-13T00:41:49.717Z,101621.88
2023-01-13T00:44:18.623Z,101614.46
2023-01-13T00:46:47.440Z,101611.39
2023-01-13T00:49:16.317Z,101610.61
2023-01-13T00:51:45.034Z,101606.69
2023-01-13T00:54:14.352Z,101611.41
2023-01-13T00:56:43.074Z,101614.83
2023-01-13T00:59:13.500Z,101613.08
2023-01-13T01:01:42.600Z,101613.09
2023-01-13T01:04:12.239Z,101616.84
2023-01-13T01:06:41.031Z,101621.83
2023-01-13T01:09:14.781Z,101621.52
2023-01-13T01:11:44.693Z,101619.59
2023-01-13T01:14:13.997Z,101616.82
2023-01-13T01:16:42.805Z,101617.64
2023-01-13T01:19:11.527Z,101612.16
2023-01-13T01:21:40.276Z,101613.64
2023-01-13T01:24:10.017Z,101612.57
2023-01-13T01:26:38.785Z,101615.80
2023-01-13T01:29:07.571Z,101618.91
2023-01-13T01:31:36.384Z,101618.31
2023-01-13T01:34:05.403Z,101616.80
2023-01-13T01:36:35.421Z,101619.76
2023-01-13T01:39:05.134Z,101618.55
2023-01-13T01:41:35.967Z,101619.09
2023-01-13T01:44:41.915Z,101616.99
2023-01-13T01:47:15.328Z,101611.65
2023-01-13T01:49:46.231Z,101611.81
2023-01-13T01:52:22.988Z,101609.76
2023-01-13T01:55:05.780Z,101611.59
2023-01-13T01:57:51.230Z,101608.53
2023-01-13T02:00:20.158Z,101607.55
2023-01-13T02:02:51.738Z,101605.01
2023-01-13T02:05:21.082Z,101609.03
2023-01-13T02:07:55.499Z,101612.31
2023-01-13T02:10:27.874Z,101613.34
2023-01-13T02:13:01.126Z,101614.77
2023-01-13T02:15:48.307Z,101611.27
2023-01-13T02:18:39.541Z,101610.97
2023-01-13T02:21:13.970Z,101608.20
2023-01-13T02:24:25.088Z,101608.69
2023-01-13T02:27:30.889Z,101609.23
2023-01-13T02:30:36.824Z,101608.73
2023-01-13T02:33:11.333Z,101608.61
2023-01-13T02:36:02.274Z,101604.50
2023-01-13T02:38:40.060Z,101602.27
2023-01-13T02:41:58.718Z,101597.98
2023-01-13T02:44:38.788Z,101591.63
2023-01-13T02:47:23.127Z,101588.43
2023-01-13T02:50:02.318Z,101587.98
2023-01-13T02:52:36.892Z,101585.88
2023-01-13T02:55:16.320Z,101586.39
2023-01-13T02:57:46.537Z,101585.02
2023-01-13T03:00:17.708Z,101585.38
2023-01-13T03:02:49.082Z,101590.66
2023-01-13T03:05:18.197Z,101587.09
2023-01-13T03:08:11.045Z,101590.04
2023-01-13T03:11:07.952Z,101588.56
2023-01-13T03:14:05.645Z,101591.58
2023-01-13T03:17:06.997Z,101590.75
2023-01-13T03:19:54.189Z,101591.66
2023-01-13T03:22:49.144Z,101590.81
2023-01-13T03:25:43.514Z,101592.93
2023-01-13T03:28:32.156Z,101587.98
2023-01-13T03:31:12.424Z,101590.66
2023-01-13T03:34:09.932Z,101590.89
2023-01-13T03:36:41.241Z,101593.27
2023-01-13T03:39:16.539Z,101592.91
2023-01-13T03:41:57.547Z,101589.97
2023-01-13T03:44:49.598Z,101588.91
2023-01-13T03:47:33.620Z,101585.77
2023-01-13T03:50:18.559Z,101584.94
2023-01-13T03:52:54.040Z,101586.91
2023-01-13T03:55:31.482Z,101589.22
2023-01-13T03:58:15.108Z,101589.34
2023-01-13T04:01:00.658Z,101588.52
2023-01-13T04:03:45.292Z,101592.19
2023-01-13T04:06:30.032Z,101592.54
2023-01-13T04:09:14.779Z,101593.76
2023-01-13T04:11:50.518Z,101595.76
2023-01-13T04:14:21.249Z,101594.76
2023-01-13T04:16:50.341Z,101594.05
2023-01-13T04:19:19.096Z,101596.08
2023-01-13T04:21:48.012Z,101595.36
2023-01-13T04:24:16.723Z,101595.04
2023-01-13T04:26:45.531Z,101597.01
2023-01-13T04:29:15.730Z,101594.23
2023-01-13T04:31:45.064Z,101595.42
2023-01-13T04:34:14.025Z,101590.27
2023-01-13T04:36:42.726Z,101594.21
2023-01-13T04:39:11.635Z,101592.70
2023-01-13T04:41:58.379Z,101596.96
2023-01-13T04:44:27.723Z,101595.96
2023-01-13T04:46:57.907Z,101601.90
2023-01-13T04:49:26.707Z,101605.73
2023-01-13T04:51:55.490Z,101605.21
2023-01-13T04:54:24.212Z,101608.45
2023-01-13T04:56:53.009Z,101607.14
2023-01-13T04:59:22.255Z,101609.22
2023-01-13T05:01:51.261Z,101610.77
2023-01-13T05:04:20.122Z,101613.48
2023-01-13T05:06:48.943Z,101611.08
2023-01-13T05:09:17.803Z,101614.98
2023-01-13T05:12:04.593Z,101614.98
2023-01-13T05:14:51.543Z,101614.98
2023-01-13T05:17:24.354Z,101616.98
2023-01-13T05:19:53.272Z,101615.96
2023-01-13T05:22:40.788Z,101614.61
2023-01-13T05:25:24.834Z,101616.63
2023-01-13T05:27:54.229Z,101624.01
2023-01-13T05:30:26.712Z,101624.70
2023-01-13T05:32:56.208Z,101627.37
2023-01-13T05:35:25.908Z,101631.83
2023-01-13T05:37:55.938Z,101629.74
2023-01-13T05:40:43.222Z,101633.89
2023-01-13T05:43:21.062Z,101635.08
2023-01-13T05:46:01.995Z,101633.38
2023-01-13T05:48:33.251Z,101633.18
2023-01-13T05:51:04.110Z,101631.16
2023-01-13T05:53:33.560Z,101632.94
2023-01-13T05:56:06.355Z,101632.95
2023-01-13T05:58:35.450Z,101637.73
2023-01-13T06:01:08.166Z,101639.98
2023-01-13T06:03:38.082Z,101641.36
2023-01-13T06:06:09.229Z,101638.64
2023-01-13T06:08:39.736Z,101639.09
2023-01-13T06:11:08.954Z,101643.23
2023-01-13T06:13:37.774Z,101643.94
2023-01-13T06:16:06.955Z,101646.86
2023-01-13T06:18:36.135Z,101643.95
2023-01-13T06:21:05.417Z,101641.59
2023-01-13T06:23:38.790Z,101640.23
2023-01-13T06:26:19.320Z,101644.88
2023-01-13T06:28:50.174Z,101644.38
2023-01-13T06:31:19.801Z,101644.34
2023-01-13T06:33:56.391Z,101642.80
2023-01-13T06:36:33.168Z,101644.27
2023-01-13T06:39:04.392Z,101647.12
2023-01-13T06:41:52.316Z,101644.73
2023-01-13T06:44:24.052Z,101650.02
2023-01-13T06:46:52.957Z,101658.85
2023-01-13T06:49:22.121Z,101660.33
2023-01-13T06:51:50.992Z,101657.83
2023-01-13T06:54:19.699Z,101658.82
2023-01-13T06:56:48.508Z,101660.49
2023-01-13T06:59:17.264Z,101656.44
2023-01-13T07:01:46.107Z,101657.30
2023-01-13T07:04:15.091Z,101655.87
2023-01-13T07:06:43.866Z,101654.81
2023-01-13T07:09:12.921Z,101654.89
2023-01-13T07:11:41.747Z,101649.11
2023-01-13T07:14:29.126Z,101653.77
2023-01-13T07:16:57.881Z,101652.64
2023-01-13T07:19:26.582Z,101658.57
2023-01-13T07:21:55.300Z,101660.91
2023-01-13T07:24:24.162Z,101659.70
2023-01-13T07:26:53.326Z,101662.61
2023-01-13T07:29:22.222Z,101658.41
2023-01-13T07:31:51.078Z,101656.44
2023-01-13T07:34:19.965Z,101657.84
2023-01-13T07:36:48.825Z,101658.80
2023-01-13T07:39:17.738Z,101658.11
2023-01-13T07:42:04.663Z,101658.50
2023-01-13T07:44:33.809Z,101660.48
2023-01-13T07:47:02.486Z,101656.74
2023-01-13T07:49:31.429Z,101651.77
2023-01-13T07:52:00.206Z,101652.77
2023-01-13T07:54:40.057Z,101649.60
2023-01-13T07:57:09.600Z,101655.48
2023-01-13T07:59:38.449Z,101652.33
2023-01-13T08:02:11.907Z,101655.88
2023-01-13T08:04:41.083Z,101656.83
2023-01-13T08:07:09.869Z,101658.65
2023-01-13T08:09:38.700Z,101656.27
2023-01-13T08:12:26.241Z,101654.20
2023-01-13T08:14:55.153Z,101654.76
2023-01-13T08:17:24.614Z,101661.55
2023-01-13T08:19:53.353Z,101660.75
2023-01-13T08:22:23.020Z,101660.17
2023-01-13T08:24:52.012Z,101662.98
2023-01-13T08:27:20.915Z,101663.77
2023-01-13T08:29:49.688Z,101658.27
2023-01-13T08:32:18.490Z,101656.92
2023-01-13T08:34:47.229Z,101656.54
2023-01-13T08:37:16.181Z,101646.90
2023-01-13T08:39:45.054Z,101641.95
2023-01-13T08:42:13.949Z,101641.29
2023-01-13T08:44:42.683Z,101640.64
2023-01-13T08:47:11.553Z,101635.11
2023-01-13T08:49:40.478Z,101631.45
2023-01-13T08:52:09.452Z,101629.52
2023-01-13T08:54:39.944Z,101628.66
2023-01-13T08:57:08.828Z,101627.84
2023-01-13T08:59:37.954Z,101625.23
2023-01-13T09:02:15.890Z,101626.83
2023-01-13T09:04:45.624Z,101623.38
2023-01-13T09:07:14.492Z,101621.13
2023-01-13T09:09:43.568Z,101619.37
2023-01-13T09:12:34.287Z,101617.80
2023-01-13T09:15:06.450Z,101620.32
2023-01-13T09:17:35.312Z,101621.87
2023-01-13T09:20:05.454Z,101620.28
2023-01-13T09:22:36.496Z,101618.27
2023-01-13T09:25:08.331Z,101619.52
2023-01-13T09:27:37.106Z,101615.58
2023-01-13T09:30:06.948Z,101612.36
2023-01-13T09:32:38.352Z,101612.57
2023-01-13T09:35:08.156Z,101611.65
2023-01-13T09:37:40.580Z,101613.31
2023-01-13T09:40:22.797Z,101615.81
2023-01-13T09:43:27.818Z,101619.51
2023-01-13T09:46:27.701Z,101614.09
2023-01-13T09:48:59.636Z,101618.07
2023-01-13T09:51:45.913Z,101620.59
2023-01-13T09:55:01.637Z,101618.40
2023-01-13T09:57:34.775Z,101613.28
2023-01-13T10:00:11.058Z,101607.69
2023-01-13T10:03:07.089Z,101603.16
2023-01-13T10:05:51.206Z,101601.88
2023-01-13T10:08:30.095Z,101597.33
2023-01-13T10:11:34.752Z,101587.48
2023-01-13T10:14:17.014Z,101583.71
2023-01-13T10:17:06.058Z,101577.44
2023-01-13T10:19:53.284Z,101579.84
2023-01-13T10:23:04.742Z,101582.39
2023-01-13T10:26:03.514Z,101578.86
2023-01-13T10:28:32.376Z,101575.01
2023-01-13T10:31:10.544Z,101576.23
2023-01-13T10:33:39.393Z,101575.59
2023-01-13T10:36:16.304Z,101571.22
2023-01-13T10:38:47.521Z,101565.60
2023-01-13T10:41:16.408Z,101567.48
2023-01-13T10:43:59.683Z,101563.10
2023-01-13T10:46:30.231Z,101559.61
2023-01-13T10:49:02.431Z,101565.50
2023-01-13T10:51:37.649Z,101569.36
2023-01-13T10:54:15.283Z,101565.66
2023-01-13T10:56:45.561Z,101563.60
2023-01-13T10:59:24.225Z,101564.98
2023-01-13T11:02:25.237Z,101564.13
2023-01-13T11:04:55.011Z,101562.94
2023-01-13T11:07:50.682Z,101563.36
2023-01-13T11:10:32.835Z,101559.21
2023-01-13T11:13:14.538Z,101559.21
2023-01-13T11:16:16.948Z,101554.61
2023-01-13T11:19:02.596Z,101554.38
2023-01-13T11:21:41.423Z,101550.52
2023-01-13T11:24:45.084Z,101549.45
2023-01-13T11:27:30.757Z,101548.46
2023-01-13T11:30:21.294Z,101546.45
2023-01-13T11:33:05.168Z,101538.08
2023-01-13T11:35:41.544Z,101537.23
2023-01-13T11:38:31.432Z,101539.42
2023-01-13T11:41:17.009Z,101539.15
2023-01-13T11:44:04.031Z,101541.08
2023-01-13T11:46:32.949Z,101541.83
2023-01-13T11:49:02.802Z,101541.46
2023-01-13T11:51:47.159Z,101540.33
2023-01-13T11:54:27.835Z,101536.95
2023-01-13T11:57:41.169Z,101535.35
2023-01-13T12:00:37.263Z,101536.33
2023-01-13T12:03:34.035Z,101533.59
2023-01-13T12:06:20.282Z,101524.99
2023-01-13T12:09:32.661Z,101525.53
2023-01-13T12:12:19.917Z,101528.77
2023-01-13T12:15:06.788Z,101526.90
2023-01-13T12:18:08.774Z,101520.94
2023-01-13T12:21:07.752Z,101518.00
2023-01-13T12:23:53.841Z,101522.92
2023-01-13T12:26:23.411Z,101525.91
2023-01-13T12:29:00.497Z,101521.23
2023-01-13T12:31:30.537Z,101512.66
2023-01-13T12:34:33.174Z,101520.83
2023-01-13T12:37:44.994Z,101524.64
2023-01-13T12:40:48.285Z,101527.90
2023-01-13T12:43:40.635Z,101527.73
2023-01-13T12:47:01.979Z,101528.84
2023-01-13T12:49:34.918Z,101530.15
2023-01-13T12:52:14.641Z,101532.25
2023-01-13T12:54:43.645Z,101536.11
2023-01-13T12:57:27.702Z,101533.45
2023-01-13T13:00:05.566Z,101533.63
2023-01-13T13:02:43.202Z,101532.44
2023-01-13T13:05:15.440Z,101531.58
2023-01-13T13:07:49.931Z,101532.63
2023-01-13T13:10:34.815Z,101536.41
2023-01-13T13:13:20.332Z,101533.45
2023-01-13T13:15:51.954Z,101530.32
2023-01-13T13:18:27.735Z,101529.60
2023-01-13T13:21:09.315Z,101529.77
2023-01-13T13:23:58.073Z,101535.67
2023-01-13T13:26:30.999Z,101536.39
2023-01-13T13:29:21.398Z,101538.58
2023-01-13T13:32:12.927Z,101539.39
2023-01-13T13:35:08.137Z,101544.56
2023-01-13T13:38:21.204Z,101545.54
2023-01-13T13:41:09.650Z,101545.16
2023-01-13T13:44:01.584Z,101547.57
2023-01-13T13:46:48.731Z,101549.00
2023-01-13T13:49:38.042Z,101546.22
2023-01-13T13:52:33.944Z,101543.92
2023-01-13T13:55:20.574Z,101546.52
2023-01-13T13:57:53.371Z,101550.28
2023-01-13T14:00:30.529Z,101549.61
2023-01-13T14:03:25.013Z,101542.44
2023-01-13T14:06:01.574Z,101545.34
2023-01-13T14:08:35.448Z,101550.43
2023-01-13T14:11:32.223Z,101553.73
2023-01-13T14:14:07.009Z,101556.90
2023-01-13T14:16:38.963Z,101559.58
2023-01-13T14:19:27.441Z,101559.62
2023-01-13T14:22:01.799Z,101561.48
2023-01-13T14:24:32.304Z,101562.02
2023-01-13T14:27:19.031Z,101568.71
2023-01-13T14:29:54.709Z,101574.13
2023-01-13T14:32:33.979Z,101575.45
2023-01-13T14:35:06.716Z,101577.84
2023-01-13T14:37:42.650Z,101578.45
2023-01-13T14:40:50.323Z,101578.25
2023-01-13T14:43:23.106Z,101577.38
2023-01-13T14:45:59.651Z,101581.16
2023-01-13T14:48:36.266Z,101579.82
2023-01-13T14:51:11.806Z,101584.02
2023-01-13T14:53:47.255Z,101587.15
2023-01-13T14:56:43.004Z,101573.40
2023-01-13T15:00:08.657Z,101583.96
2023-01-13T15:02:58.881Z,101583.06
2023-01-13T15:05:30.363Z,101580.05
2023-01-13T15:08:11.433Z,101584.02
2023-01-13T15:11:01.634Z,101580.77
2023-01-13T15:13:35.775Z,101581.19
2023-01-13T15:16:16.833Z,101582.71
2023-01-13T15:18:47.156Z,101582.98
2023-01-13T15:21:16.843Z,101586.90
2023-01-13T15:23:47.411Z,101590.87
2023-01-13T15:26:21.944Z,101594.44
2023-01-13T15:28:52.379Z,101591.23
2023-01-13T15:31:22.396Z,101594.41
2023-01-13T15:33:51.938Z,101593.66
2023-01-13T15:36:25.081Z,101590.94
2023-01-13T15:38:55.534Z,101592.64
2023-01-13T15:42:05.912Z,101595.79
2023-01-13T15:46:45.916Z,101599.44
2023-01-13T15:49:35.301Z,101597.95
2023-01-13T15:52:25.706Z,101594.72
2023-01-13T15:54:55.382Z,101595.05
2023-01-13T15:57:27.676Z,101597.44
2023-01-13T16:00:00.490Z,101598.46
2023-01-13T16:02:31.250Z,101601.59
2023-01-13T16:05:00.828Z,101600.27
2023-01-13T16:07:29.584Z,101600.02
2023-01-13T16:09:58.565Z,101601.16
2023-01-13T16:12:27.303Z,101596.21
2023-01-13T16:14:56.103Z,101598.83
2023-01-13T16:17:31.830Z,101593.57
2023-01-13T16:20:00.627Z,101595.45
2023-01-13T16:22:30.239Z,101595.48
2023-01-13T16:25:02.203Z,101593.42
2023-01-13T16:27:31.146Z,101594.23
2023-01-13T16:30:01.326Z,101593.98
2023-01-13T16:32:31.186Z,101594.20
2023-01-13T16:34:59.946Z,101594.05
2023-01-13T16:37:30.025Z,101594.98
2023-01-13T16:39:59.017Z,101596.57
2023-01-13T16:42:29.245Z,101593.42
2023-01-13T16:44:59.261Z,101587.92
2023-01-13T16:47:31.575Z,101588.28
2023-01-13T16:50:00.383Z,101589.13
2023-01-13T16:52:29.159Z,101590.31
2023-01-13T16:54:57.997Z,101589.70
2023-01-13T16:57:26.906Z,101588.02
2023-01-13T16:59:58.682Z,101584.09
2023-01-13T17:02:28.352Z,101585.32
2023-01-13T17:05:01.289Z,101584.26
2023-01-13T17:07:30.153Z,101583.66
2023-01-13T17:09:59.081Z,101586.02
2023-01-13T17:12:38.900Z,101585.29
2023-01-13T17:15:11.464Z,101585.23
2023-01-13T17:17:43.599Z,101587.03
2023-01-13T17:20:29.191Z,101586.98
2023-01-13T17:22:58.789Z,101585.18
2023-01-13T17:25:28.989Z,101583.36
2023-01-13T17:27:58.493Z,101588.80
2023-01-13T17:30:29.889Z,101589.23
2023-01-13T17:32:59.627Z,101592.30
2023-01-13T17:35:29.464Z,101592.89
2023-01-13T17:37:59.327Z,101595.02
2023-01-13T17:40:28.314Z,101592.46
2023-01-13T17:43:05.438Z,101593.06
2023-01-13T17:45:34.435Z,101596.94
2023-01-13T17:48:07.242Z,101597.45
2023-01-13T17:50:37.028Z,101594.53
2023-01-13T17:53:06.773Z,101595.05
2023-01-13T17:55:54.257Z,101596.30
2023-01-13T17:58:23.291Z,101595.34
2023-01-13T18:00:53.125Z,101588.47
2023-01-13T18:03:22.907Z,101590.55
2023-01-13T18:05:52.792Z,101587.73
2023-01-13T18:08:23.935Z,101587.62
2023-01-13T18:10:52.996Z,101585.81
2023-01-13T18:13:22.737Z,101582.77
2023-01-13T18:16:09.652Z,101579.95
2023-01-13T18:18:41.067Z,101578.11
2023-01-13T18:21:44.715Z,101578.19
2023-01-13T18:24:35.615Z,101580.29
2023-01-13T18:27:24.591Z,101582.86
2023-01-13T18:29:56.704Z,101582.80
2023-01-13T18:32:32.983Z,101583.57
2023-01-13T18:35:09.934Z,101583.39
2023-01-13T18:37:42.223Z,101580.54
2023-01-13T18:40:13.738Z,101580.23
2023-01-13T18:42:51.783Z,101577.72
2023-01-13T18:45:27.711Z,101576.44
2023-01-13T18:48:00.326Z,101576.20
2023-01-13T18:50:30.686Z,101576.23
2023-01-13T18:53:02.934Z,101578.64
2023-01-13T18:55:31.825Z,101575.60
2023-01-13T18:58:00.827Z,101575.73
2023-01-13T19:00:31.257Z,101579.36
2023-01-13T19:05:38.230Z,101582.74
2023-01-13T19:08:07.491Z,101581.44
2023-01-13T19:10:37.752Z,101577.55
2023-01-13T19:13:06.686Z,101577.38
2023-01-13T19:15:37.899Z,101574.86
2023-01-13T19:18:06.616Z,101572.95
2023-01-13T19:20:35.388Z,101571.58
2023-01-13T19:23:04.279Z,101571.37
2023-01-13T19:25:33.298Z,101569.63
2023-01-13T19:28:02.150Z,101570.27
2023-01-13T19:30:32.240Z,101569.38
2023-01-13T19:33:00.995Z,101572.02
2023-01-13T19:35:29.838Z,101568.68
2023-01-13T19:37:58.678Z,101567.23
2023-01-13T19:40:27.488Z,101567.08
2023-01-13T19:43:14.769Z,101570.42
2023-01-13T19:45:45.156Z,101572.63
2023-01-13T19:48:16.489Z,101571.33
2023-01-13T19:50:45.364Z,101568.05
2023-01-13T19:53:18.052Z,101568.27
2023-01-13T19:55:48.923Z,101566.05
2023-01-13T19:58:24.311Z,101566.73
2023-01-13T20:00:54.407Z,101569.81
2023-01-13T20:03:27.171Z,101577.60
2023-01-13T20:05:56.286Z,101573.15
2023-01-13T20:08:25.606Z,101577.29
2023-01-13T20:11:14.331Z,101576.83
2023-01-13T20:13:43.929Z,101577.02
2023-01-13T20:16:12.933Z,101570.30
2023-01-13T20:18:44.575Z,101573.10
2023-01-13T20:21:13.321Z,101567.46
2023-01-13T20:23:51.151Z,101566.29
2023-01-13T20:26:21.492Z,101566.62
2023-01-13T20:28:51.291Z,101565.48
2023-01-13T20:31:20.071Z,101562.05
2023-01-13T20:33:50.782Z,101566.20
2023-01-13T20:36:34.103Z,101565.20
2023-01-13T20:39:06.393Z,101565.62
2023-01-13T20:41:53.812Z,101562.12
2023-01-13T20:44:22.796Z,101561.29
2023-01-13T20:46:54.691Z,101556.92
2023-01-13T20:49:25.824Z,101560.00
2023-01-13T20:51:55.943Z,101561.45
2023-01-13T20:54:25.740Z,101562.21
2023-01-13T20:56:54.625Z,101561.36
2023-01-13T20:59:23.423Z,101556.73
2023-01-13T21:01:52.400Z,101558.34
2023-01-13T21:04:21.412Z,101557.02
2023-01-13T21:06:51.225Z,101555.83
2023-01-13T21:09:20.107Z,101549.60
2023-01-13T21:12:07.330Z,101550.70
2023-01-13T21:14:54.427Z,101546.98
2023-01-13T21:17:42.091Z,101547.92
2023-01-13T21:20:14.122Z,101545.08
2023-01-13T21:22:48.379Z,101541.51
2023-01-13T21:25:18.706Z,101550.26
2023-01-13T21:27:47.605Z,101544.63
2023-01-13T21:30:18.260Z,101549.44
2023-01-13T21:32:47.814Z,101552.70
2023-01-13T21:35:17.432Z,101554.40
2023-01-13T21:37:47.050Z,101551.01
2023-01-13T21:40:17.578Z,101550.44
2023-01-13T21:43:06.021Z,101550.98
2023-01-13T21:45:53.143Z,101547.63
2023-01-13T21:48:23.020Z,101546.98
2023-01-13T21:50:51.833Z,101546.85
2023-01-13T21:53:20.731Z,101545.20
2023-01-13T21:55:53.042Z,101540.80
2023-01-13T21:58:22.331Z,101542.14
2023-01-13T22:00:51.221Z,101535.88
2023-01-13T22:03:20.307Z,101538.33
2023-01-13T22:05:55.886Z,101534.19
2023-01-13T22:08:24.634Z,101536.21
2023-01-13T22:10:59.834Z,101534.46
2023-01-13T22:13:48.160Z,101531.05
2023-01-13T22:16:17.345Z,101527.67
2023-01-13T22:18:46.206Z,101528.63
2023-01-13T22:21:15.441Z,101525.11
2023-01-13T22:23:45.682Z,101528.18
2023-01-13T22:26:14.730Z,101527.13
2023-01-13T22:28:44.438Z,101521.17
2023-01-13T22:31:19.722Z,101521.34
2023-01-13T22:33:48.574Z,101522.16
2023-01-13T22:36:17.427Z,101523.45
2023-01-13T22:38:46.399Z,101529.29
2023-01-13T22:41:15.227Z,101524.04
2023-01-13T22:43:44.001Z,101523.13
2023-01-13T22:46:14.016Z,101519.01
2023-01-13T22:48:42.850Z,101519.02
2023-01-13T22:59:41.937Z,101510.15
2023-01-13T23:02:13.223Z,101508.05
2023-01-13T23:04:44.396Z,101510.48
2023-01-13T23:07:13.995Z,101512.30
2023-01-13T23:09:43.498Z,101513.03
2023-01-13T23:12:12.398Z,101507.77
2023-01-13T23:14:41.368Z,101506.64
2023-01-13T23:17:10.690Z,101508.44
2023-01-13T23:19:39.431Z,101506.05
2023-01-13T23:22:08.256Z,101510.70
2023-01-13T23:24:37.054Z,101511.61
2023-01-13T23:27:06.168Z,101514.09
2023-01-13T23:29:35.253Z,101511.66
2023-01-13T23:32:05.313Z,101507.69
2023-01-13T23:34:34.264Z,101507.83
2023-01-13T23:37:03.351Z,101507.68
2023-01-13T23:39:32.254Z,101512.75
2023-01-13T23:42:01.258Z,101511.84
2023-01-13T23:44:30.230Z,101509.59
2023-01-13T23:46:59.260Z,101511.08
2023-01-13T23:49:28.638Z,101505.99
2023-01-13T23:51:57.631Z,101503.44
2023-01-13T23:54:26.426Z,101506.51
2023-01-13T23:56:55.518Z,101510.13
2023-01-13T23:59:24.720Z,101505.20
